Historyczne dane pomiarowe

Dodano dane terminowe – wersja testowa.

Dane z okresu 1951-2019

Wersja bazy: 1.34 [2019-03-16, lista zmian], aktualizacja planowana na 2019-04-15

Dane meteo z obszaru Polski uzyskane na podstawie danych udostępnionych przez Instytut Meteorologii i Gospodarki Wodnej – Państwowy Instytut Badawczy.

 

Wybierz Datę:    

       

TemperaturaWilgotnośćWiatrCiśnienieOpadyŚniegCzas trwania zjawisk
 Stacja t tx tn tng RH VA  wxwx mslp ppp RRR   cm mm wxwxwxwxwxwxwx
1994-10-10 5.2 9.6 1.3 -0.4 75.5- 3.7 2.0---- 0.0------------
1994-10-09 3.1 7.2 0.5 -0.5 94.3- 8.0 1.3---- 13.6------------
1994-10-08 4.3 8.9 -0.6 -1.7 95.0- 5.3 0.7---- 7.2------------
1994-10-07 2.4 3.8 0.0 -1.9 97.5- 8.0 3.3---- 3.0------------
1994-10-06 3.4 6.7 1.3 -0.8 92.0- 6.7 1.7---- 2.4------------
1994-10-05 5.0 8.7 2.5 -0.3 83.8- 1.3 2.0---- 1.6------------
1994-10-04 9.5 16.4 3.5 3.3 92.8- 5.3 2.3---- 2.4------------
1994-10-03 15.7 18.5 11.5 8.8 95.5- 7.3 2.0---- 8.4------------
1994-10-02 13.2 16.9 9.0 6.3 90.8- 6.3 2.0---- 0.0------------
1994-10-01 14.2 21.5 8.0 5.8 89.8- 5.3 3.0---- 0.0------------
1994-09-30 14.3 17.5 10.5 8.0 84.0- 1.0 0.7---- 0.0------------
1994-09-29 12.0 18.9 4.6 3.1 84.3- 0.0 1.7---- 0.0------------
1994-09-28 11.4 14.1 8.0 7.7 94.3- 7.3 0.0---- 0.0------------
1994-09-27 14.4 18.2 11.3 10.5 97.3- 8.0 1.7---- 13.5------------
1994-09-26 18.4 21.9 16.5 12.9 93.3- 3.7 1.3---- 6.2------------
1994-09-25 17.1 23.8 10.9 9.1 87.0- 3.7 0.7---- 0.0------------
1994-09-24 13.4 20.9 5.6 4.2 89.0- 0.0 1.0---- 0.0------------
1994-09-23 12.3 16.5 7.3 6.9 84.5- 0.0 2.0---- 0.0------------
1994-09-22 13.8 17.1 9.7 6.6 80.3- 6.0 3.3---- 0.0------------
1994-09-21 10.6 12.3 9.8 8.6 95.8- 8.0 2.0---- 0.2------------
1994-09-20 10.2 13.4 8.5 6.9 98.3- 8.0 2.0---- 7.4------------
1994-09-19 9.7 15.4 4.3 2.2 83.5- 0.0 1.0---- 0.5------------
1994-09-18 9.4 13.3 4.4 2.0 81.0- 2.7 0.0---- 0.0------------
1994-09-17 9.7 13.2 6.8 4.8 98.8- 8.0 1.7---- 12.0------------
1994-09-16 14.2 20.0 9.4 8.0 70.0- 4.3 3.3---- 1.9------------
1994-09-15 21.7 25.7 19.5 17.5 62.0- 2.7 2.7---- 0.0------------
1994-09-14 20.8 27.3 13.6 12.9 79.3- 4.0 2.7---- 3.0------------
1994-09-13 18.1 23.7 12.4 11.5 92.0- 2.3 1.0---- 10.6------------
1994-09-12 18.5 25.0 11.9 9.0 67.5- 2.7 3.0---- 0.0------------
1994-09-11 17.0 20.0 13.6 11.2 62.8- 2.7 2.0---- 0.0------------
1994-09-10 14.5 22.3 5.7 4.1 67.8- 0.7 2.7---- 0.0------------
1994-09-09 18.5 25.0 13.1 11.5 78.0- 4.3 2.7---- 2.4------------
1994-09-08 20.0 29.4 11.3 9.9 70.5- 0.0 2.3---- 0.0------------
1994-09-07 16.7 22.4 9.1 8.2 76.3- 4.7 2.7---- 0.0------------
1994-09-06 16.1 18.8 14.8 13.3 86.3- 2.7 2.3---- 5.2------------
1994-09-05 17.5 22.5 13.5 10.4 80.8- 5.3 0.7---- 7.0------------
1994-09-04 15.8 17.6 14.6 14.1 94.8- 8.0 0.7---- 2.5------------
1994-09-03 19.0 22.8 17.6 16.0 75.8- 8.0 3.7---- 8.0------------
1994-09-02 19.6 26.0 14.5 12.4 88.8- 3.0 0.7---- 0.5------------
1994-09-01 17.4 22.0 14.0 11.7 93.0- 5.3 2.3---- 13.6------------
1994-08-31 16.8 23.0 12.0 10.2 88.8- 5.3 1.3---- 2.3------------
1994-08-30 14.8 20.2 9.3 7.6 72.5- 1.3 1.3---- 0.0------------
1994-08-29 16.4 23.4 12.9 12.1 80.5- 4.0 1.7---- 0.0------------
1994-08-28 17.9 25.3 9.0 7.7 73.3- 0.7 1.7---- 3.0------------
1994-08-27 17.0 21.5 13.8 11.4 85.5- 3.3 1.7---- 0.0------------
1994-08-26 15.8 21.6 14.8 14.1 94.0- 8.0 1.7---- 11.5------------
1994-08-25 18.1 22.3 12.5 10.3 81.5- 5.7 1.7---- 0.5------------
1994-08-24 17.8 23.5 11.0 8.5 77.3- 2.7 1.3---- 0.0------------
1994-08-23 16.4 22.5 7.9 7.0 77.0- 3.7 1.3---- 0.0------------
1994-08-22 17.0 22.4 10.3 10.3 80.3- 2.3 2.0---- 0.0------------
1994-08-21 17.8 21.8 12.5 10.6 60.8- 0.3 1.7---- 0.0------------
1994-08-20 17.1 19.9 12.9 12.5 77.8- 3.3 4.0---- 6.3------------
1994-08-19 13.9 16.5 12.5 12.5 72.8- 6.0 3.0---- 7.2------------
1994-08-18 16.6 24.0 12.0 11.5 81.5- 6.3 0.7---- 18.1------------
1994-08-17 17.7 26.1 8.0 7.3 67.3- 0.7 1.3---- 2.0------------
1994-08-16 15.8 20.2 12.5 11.5 74.3- 4.7 2.0---- 0.0------------
1994-08-15 15.2 17.9 11.3 8.5 64.3- 5.3 4.3---- 1.6------------
1994-08-14 15.8 19.5 13.0 11.4 61.5- 3.3 2.0---- 0.0------------
1994-08-13 18.0 23.0 14.9 14.6 83.5- 6.3 3.0---- 2.2------------
1994-08-12 17.4 21.8 15.5 14.4 89.8- 8.0 4.0---- 6.4------------
473.6 ms

 

Źródłem pochodzenia danych jest Instytut Meteorologii i Gospodarki Wodnej – Państwowy Instytut Badawczy. Dane Instytutu Meteorologii i Gospodarki Wodnej – Państwowego Instytutu Badawczego zostały przetworzone.

Dane źródłowe można odnaleźć na stronie https://dane.imgw.pl